Time;durP1;ratioP1;P1;durP2;ratioP2;P2;SDS_P1;SDS_P2;PMS_P1;PMS_P2;Temp;Humidity;BMP_temperature;BMP_pressure;BME280_temperature;BME280_humidity;BME280_pressure;Samples;Min_cycle;Max_cycle;Signal;HPM_P1;HPM_P2
2021/10/28 00:14:55;;;;;;;7.57;6.27;;;2.70;99.90;2.00;97709.00;;;;5117041;27;20789;-72
2021/10/28 00:17:57;;;;;;;8.17;5.93;;;2.70;99.90;2.00;97698.00;;;;5115155;27;20809;-72
2021/10/28 00:20:52;;;;;;;7.93;6.00;;;2.70;99.90;1.90;97698.00;;;;5129780;27;20427;-71
2021/10/28 00:23:44;;;;;;;5.87;4.80;;;2.60;99.90;1.60;97701.00;;;;5130271;27;20420;-72
2021/10/28 00:26:37;;;;;;;7.50;4.67;;;2.60;99.90;1.60;97702.00;;;;5120904;27;20447;-71
2021/10/28 00:29:26;;;;;;;5.57;5.03;;;2.40;99.90;1.60;97693.00;;;;5129145;27;20701;-71
2021/10/28 00:32:16;;;;;;;7.03;5.27;;;2.40;99.90;1.60;97687.00;;;;5129152;27;20536;-72
2021/10/28 00:35:06;;;;;;;5.67;5.07;;;2.40;99.90;1.70;97688.00;;;;5127972;27;20771;-71
2021/10/28 00:37:55;;;;;;;9.20;5.40;;;2.40;99.90;1.80;97692.00;;;;5129901;27;20416;-72
2021/10/28 00:40:44;;;;;;;7.50;5.50;;;2.40;99.90;1.80;97694.00;;;;5118659;27;20424;-71
2021/10/28 00:43:34;;;;;;;7.03;6.13;;;2.40;99.90;1.70;97682.00;;;;5129906;27;20426;-71
2021/10/28 00:46:26;;;;;;;6.07;5.43;;;2.40;99.90;1.70;97687.00;;;;5127982;27;20427;-72
2021/10/28 00:49:17;;;;;;;5.83;4.90;;;2.40;99.90;1.50;97683.00;;;;5129885;27;20424;-71
2021/10/28 00:52:07;;;;;;;5.33;4.77;;;2.30;99.90;1.40;97678.00;;;;5108724;28;20448;-71
2021/10/28 00:54:56;;;;;;;11.20;5.77;;;2.30;99.90;1.50;97676.00;;;;5106872;28;20417;-72
2021/10/28 00:57:46;;;;;;;7.47;5.50;;;2.20;99.90;1.60;97689.00;;;;5107440;28;20456;-71
2021/10/28 01:00:35;;;;;;;4.87;4.47;;;2.20;99.90;1.60;97686.00;;;;5108205;28;20420;-70
2021/10/28 01:03:24;;;;;;;6.07;5.43;;;2.20;99.90;1.60;97678.00;;;;5108420;28;20409;-71
2021/10/28 01:06:15;;;;;;;7.83;5.80;;;2.20;99.90;1.60;97684.00;;;;5108962;28;20433;-70
2021/10/28 01:09:05;;;;;;;5.50;5.00;;;2.30;99.90;1.60;97685.00;;;;5107302;28;20416;-71
2021/10/28 01:11:54;;;;;;;9.50;5.67;;;2.30;99.90;1.60;97684.00;;;;5107674;28;20445;-72
2021/10/28 01:14:47;;;;;;;5.23;4.70;;;2.30;99.90;1.50;97679.00;;;;5108780;28;20420;-70
2021/10/28 01:17:36;;;;;;;8.20;5.67;;;2.30;99.90;1.40;97677.00;;;;5083765;28;20467;-70
2021/10/28 01:20:26;;;;;;;10.33;5.93;;;2.30;99.90;1.40;97675.00;;;;5107929;28;20790;-72
2021/10/28 01:23:16;;;;;;;7.63;5.33;;;2.20;99.90;1.40;97672.00;;;;5106898;28;20428;-72
2021/10/28 01:26:07;;;;;;;12.73;5.17;;;2.20;99.90;1.50;97668.00;;;;5094428;28;20612;-72
2021/10/28 01:28:59;;;;;;;6.33;5.57;;;2.20;99.90;1.50;97665.00;;;;5106395;28;20424;-74
2021/10/28 01:31:48;;;;;;;5.50;4.60;;;2.20;99.90;1.30;97659.00;;;;5105938;28;20820;-72
2021/10/28 01:34:43;;;;;;;5.77;5.17;;;2.20;99.90;1.40;97657.00;;;;5098835;28;20803;-71
2021/10/28 01:37:33;;;;;;;7.07;5.00;;;2.10;99.90;1.40;97663.00;;;;5094904;28;20460;-71
2021/10/28 01:40:22;;;;;;;5.60;5.10;;;2.10;99.90;1.30;97660.00;;;;5108636;28;20436;-72
2021/10/28 01:43:11;;;;;;;6.20;5.17;;;2.10;99.90;1.40;97660.00;;;;5107447;28;20428;-71
2021/10/28 01:46:00;;;;;;;8.23;5.33;;;2.10;99.90;1.40;97659.00;;;;5108000;28;20798;-71
2021/10/28 01:48:50;;;;;;;6.87;5.00;;;2.10;99.90;1.50;97651.00;;;;5108323;28;20429;-71
2021/10/28 01:51:39;;;;;;;5.30;4.80;;;2.10;99.90;1.10;97654.00;;;;5107475;28;20943;-71
2021/10/28 01:54:30;;;;;;;11.20;4.97;;;2.10;99.90;0.80;97646.00;;;;5106728;28;20448;-71
2021/10/28 01:57:21;;;;;;;5.70;5.20;;;1.90;99.90;0.90;97658.00;;;;5099188;28;20463;-72
2021/10/28 02:00:16;;;;;;;11.23;5.97;;;1.80;99.90;1.00;97646.00;;;;5095852;28;20436;-72
2021/10/28 02:03:05;;;;;;;5.53;5.03;;;1.80;99.90;1.00;97645.00;;;;5107218;28;20522;-72
2021/10/28 02:05:55;;;;;;;9.60;5.33;;;1.80;99.90;1.00;97642.00;;;;5106650;28;21139;-72
2021/10/28 02:08:44;;;;;;;7.03;4.70;;;1.80;99.90;0.70;97652.00;;;;5108664;27;20412;-71
2021/10/28 02:11:34;;;;;;;6.87;5.03;;;1.70;99.90;0.80;97653.00;;;;5095729;28;20445;-72
2021/10/28 02:14:23;;;;;;;7.83;5.50;;;1.70;99.90;0.90;97648.00;;;;5106430;28;20424;-71
2021/10/28 02:17:12;;;;;;;6.63;5.73;;;1.70;99.90;0.90;97642.00;;;;5092496;28;20457;-71
2021/10/28 02:20:01;;;;;;;5.80;5.10;;;1.70;99.90;1.10;97642.00;;;;5107264;28;20428;-72
2021/10/28 02:22:50;;;;;;;8.37;5.97;;;1.70;99.90;1.10;97633.00;;;;5105216;28;20448;-71
2021/10/28 02:25:39;;;;;;;8.53;6.93;;;1.80;99.90;1.00;97631.00;;;;5101946;28;20780;-70
2021/10/28 02:28:29;;;;;;;6.87;5.47;;;1.80;99.90;0.80;97634.00;;;;5101655;28;20428;-70
2021/10/28 02:31:18;;;;;;;7.70;5.87;;;1.80;99.90;1.00;97613.00;;;;5096675;28;20445;-70
2021/10/28 02:34:07;;;;;;;7.07;5.37;;;1.70;99.90;1.10;97627.00;;;;5106939;28;20437;-70
2021/10/28 02:36:57;;;;;;;11.57;5.97;;;1.70;99.90;1.20;97621.00;;;;5106248;28;20468;-70
2021/10/28 02:39:48;;;;;;;8.03;6.07;;;1.90;99.90;1.30;97635.00;;;;5107682;28;20424;-71
2021/10/28 02:42:36;;;;;;;6.47;5.33;;;1.90;99.90;1.00;97614.00;;;;5106324;28;20821;-72
2021/10/28 02:45:27;;;;;;;7.63;6.53;;;1.90;99.90;0.80;97614.00;;;;5100085;28;20437;-72
2021/10/28 02:48:16;;;;;;;8.50;5.97;;;2.70;99.90;0.70;97617.00;;;;5107426;28;20425;-70
2021/10/28 02:51:04;;;;;;;6.97;5.83;;;1.70;99.90;0.70;97616.00;;;;5106677;28;20440;-71
2021/10/28 02:53:53;;;;;;;6.13;5.47;;;1.60;99.90;0.30;97614.00;;;;5097113;28;20799;-72
2021/10/28 02:56:42;;;;;;;7.57;5.80;;;1.50;99.90;0.30;97615.00;;;;5105621;28;20440;-72
2021/10/28 02:59:31;;;;;;;8.53;5.63;;;1.40;99.90;0.60;97617.00;;;;5106619;28;20436;-70
2021/10/28 03:02:22;;;;;;;7.27;6.30;;;1.40;99.90;0.60;97616.00;;;;5106954;28;20441;-72
2021/10/28 03:05:11;;;;;;;8.03;6.43;;;1.40;99.90;0.40;97611.00;;;;5107403;28;20493;-72
2021/10/28 03:08:00;;;;;;;10.70;6.30;;;1.40;99.90;0.40;97617.00;;;;5105985;28;20431;-72
2021/10/28 03:10:51;;;;;;;8.20;6.27;;;1.40;99.90;0.40;97610.00;;;;5118610;27;20416;-72
2021/10/28 03:13:40;;;;;;;6.33;5.17;;;1.40;99.90;0.40;97605.00;;;;5126046;28;20804;-72
2021/10/28 03:16:32;;;;;;;12.27;5.77;;;1.30;99.90;0.40;97611.00;;;;5118639;28;20420;-72
2021/10/28 03:19:35;;;;;;;10.17;5.80;;;1.30;99.90;0.50;97612.00;;;;5125094;28;20420;-70
2021/10/28 03:25:39;;;;;;;7.77;5.73;;;1.40;99.90;0.70;97621.00;;;;5126562;28;20942;-72
2021/10/28 03:28:28;;;;;;;9.87;5.80;;;1.50;99.90;0.90;97605.00;;;;5125944;28;20853;-72
2021/10/28 03:31:17;;;;;;;10.07;6.03;;;1.60;99.90;1.00;97616.00;;;;5115257;28;20808;-72
2021/10/28 03:34:06;;;;;;;7.03;6.30;;;1.70;99.90;1.00;97608.00;;;;5127489;28;20776;-71
2021/10/28 03:37:01;;;;;;;7.47;5.93;;;1.70;99.90;0.70;97603.00;;;;5125361;28;20420;-72
2021/10/28 03:59:08;;;;;;;13.97;6.30;;;1.90;99.90;1.10;97616.00;;;;5103328;28;20460;-72
2021/10/28 04:08:25;;;;;;;11.37;6.80;;;1.90;99.90;0.90;97611.00;;;;5109324;28;20501;-71
2021/10/28 04:29:50;;;;;;;8.87;6.97;;;1.80;99.90;1.10;97603.00;;;;5100770;28;20435;-71
2021/10/28 04:32:39;;;;;;;8.00;6.00;;;1.80;99.90;1.10;97606.00;;;;5110033;28;20435;-71
2021/10/28 04:35:28;;;;;;;9.63;6.50;;;1.80;99.90;0.90;97621.00;;;;5108022;28;20433;-71
2021/10/28 04:38:17;;;;;;;11.17;7.13;;;1.90;99.90;0.80;97615.00;;;;5109338;28;20476;-71
2021/10/28 04:41:07;;;;;;;8.37;6.30;;;1.80;99.90;1.00;97611.00;;;;5108542;28;20859;-71
2021/10/28 04:43:56;;;;;;;11.20;8.00;;;1.80;99.90;1.00;97609.00;;;;5109224;28;20428;-71
2021/10/28 04:46:45;;;;;;;9.40;8.17;;;1.80;99.90;1.10;97605.00;;;;5107999;28;20424;-71
2021/10/28 04:49:34;;;;;;;14.70;7.63;;;1.90;99.90;1.20;97611.00;;;;5107776;28;20436;-70
2021/10/28 04:52:25;;;;;;;8.20;7.40;;;1.90;99.90;1.20;97613.00;;;;5108918;28;20557;-70
2021/10/28 04:55:14;;;;;;;10.17;7.10;;;1.90;99.90;0.90;97600.00;;;;5108780;28;20409;-73
2021/10/28 04:58:04;;;;;;;9.68;8.13;;;1.80;99.90;0.70;97603.00;;;;5105735;28;20424;-73
2021/10/28 05:00:53;;;;;;;9.87;8.13;;;1.80;99.90;0.80;97609.00;;;;5108248;28;20241;-72
2021/10/28 05:03:42;;;;;;;10.17;8.23;;;1.70;99.90;0.90;97597.00;;;;5108711;28;20436;-73
2021/10/28 05:06:31;;;;;;;13.70;8.37;;;1.80;99.90;1.00;97598.00;;;;5094429;28;20519;-72
2021/10/28 05:09:25;;;;;;;9.20;6.33;;;1.70;99.90;0.90;97603.00;;;;5109671;28;20425;-72
2021/10/28 05:12:14;;;;;;;8.97;6.90;;;1.70;99.90;1.10;97597.00;;;;5108289;28;20451;-72
2021/10/28 05:15:06;;;;;;;9.77;7.80;;;1.70;99.90;1.20;97592.00;;;;5108338;28;20436;-71
2021/10/28 05:17:54;;;;;;;9.50;7.67;;;1.80;99.90;0.80;97588.00;;;;5095335;28;20464;-72
2021/10/28 05:20:44;;;;;;;7.43;6.67;;;1.90;99.90;0.60;97591.00;;;;5109491;28;20433;-71
2021/10/28 05:23:33;;;;;;;9.03;5.17;;;1.70;99.90;0.70;97580.00;;;;5109577;28;20459;-73
2021/10/28 05:26:22;;;;;;;8.43;6.47;;;1.70;99.90;0.80;97581.00;;;;5108817;28;20421;-72
2021/10/28 05:29:10;;;;;;;10.80;8.63;;;1.60;99.90;0.80;97592.00;;;;5107264;28;20417;-72
2021/10/28 05:32:01;;;;;;;12.73;6.40;;;1.70;99.90;0.70;97589.00;;;;5108072;28;20452;-71
2021/10/28 05:34:52;;;;;;;9.67;7.47;;;1.60;99.90;0.60;97594.00;;;;5108612;27;20428;-71
2021/10/28 05:37:40;;;;;;;14.67;7.77;;;1.60;99.90;0.50;97593.00;;;;5107971;28;20425;-72
2021/10/28 05:40:29;;;;;;;14.10;9.83;;;1.50;99.90;0.40;97592.00;;;;5107319;28;20421;-72
2021/10/28 05:43:18;;;;;;;12.93;8.60;;;1.40;99.90;0.50;97600.00;;;;5107339;28;20429;-73
2021/10/28 05:46:07;;;;;;;9.30;7.23;;;1.30;99.90;0.50;97600.00;;;;5106362;28;20413;-73
2021/10/28 05:48:57;;;;;;;7.40;6.40;;;1.30;99.90;0.20;97603.00;;;;5107472;28;20435;-72
2021/10/28 05:51:47;;;;;;;15.10;10.97;;;1.30;99.90;0.40;97609.00;;;;5107513;28;20445;-71
2021/10/28 05:54:36;;;;;;;12.10;8.87;;;1.30;99.90;0.70;97611.00;;;;5107716;28;20417;-71
2021/10/28 05:57:28;;;;;;;11.93;9.63;;;1.40;99.90;0.90;97612.00;;;;5107482;28;20822;-72
2021/10/28 06:00:18;;;;;;;10.70;8.33;;;1.50;99.90;0.90;97610.00;;;;5107138;28;20491;-71
2021/10/28 06:03:07;;;;;;;7.70;5.50;;;1.60;99.90;0.90;97619.00;;;;5108419;28;20428;-71
2021/10/28 06:05:59;;;;;;;12.17;7.93;;;1.70;99.90;0.70;97616.00;;;;5097434;28;20485;-72
2021/10/28 06:08:48;;;;;;;9.53;6.77;;;1.70;99.90;1.00;97614.00;;;;5099204;28;20448;-72
2021/10/28 06:11:37;;;;;;;7.13;6.03;;;1.70;99.90;1.20;97630.00;;;;5096782;28;20444;-72
2021/10/28 06:14:27;;;;;;;7.43;6.70;;;1.80;99.90;0.90;97625.00;;;;5107029;28;20920;-73
2021/10/28 06:17:18;;;;;;;9.83;7.40;;;1.80;99.90;1.00;97623.00;;;;5093631;28;20432;-73
2021/10/28 06:20:08;;;;;;;10.23;8.03;;;1.90;99.90;1.10;97609.00;;;;5105449;28;20521;-71
2021/10/28 06:22:58;;;;;;;2.77;2.60;;;1.90;99.90;0.90;97620.00;;;;5105996;28;20445;-73
2021/10/28 06:25:47;;;;;;;14.17;8.47;;;1.90;99.90;0.70;97632.00;;;;5093901;28;20421;-73
2021/10/28 06:28:36;;;;;;;11.00;6.63;;;1.80;99.90;1.00;97633.00;;;;5103818;28;20448;-73
2021/10/28 06:31:25;;;;;;;10.73;6.97;;;1.80;99.90;1.40;97642.00;;;;5098295;28;20429;-72
2021/10/28 06:34:18;;;;;;;9.97;8.90;;;1.90;99.90;1.30;97637.00;;;;5099421;28;20800;-72
2021/10/28 06:37:07;;;;;;;8.27;7.40;;;2.00;99.90;1.30;97634.00;;;;5106652;28;20413;-72
2021/10/28 06:39:57;;;;;;;9.03;7.20;;;2.10;99.90;1.60;97646.00;;;;5099835;28;20461;-72
2021/10/28 06:42:47;;;;;;;9.70;7.93;;;2.20;99.90;1.60;97643.00;;;;5101272;28;20452;-73
2021/10/28 06:45:36;;;;;;;9.47;8.20;;;2.30;99.90;1.30;97643.00;;;;5102614;28;20779;-73
2021/10/28 06:48:26;;;;;;;6.77;5.33;;;2.20;99.90;1.10;97639.00;;;;5103113;28;20417;-73
2021/10/28 06:51:15;;;;;;;7.70;5.90;;;2.10;99.90;1.20;97653.00;;;;5100907;28;20790;-73
2021/10/28 06:54:07;;;;;;;7.57;5.37;;;2.10;99.90;1.20;97662.00;;;;5093040;28;20947;-74
2021/10/28 06:57:14;;;;;;;12.47;7.70;;;2.10;99.90;1.20;97646.00;;;;5102984;28;20424;-73
2021/10/28 07:03:11;;;;;;;10.57;7.77;;;2.10;99.90;1.70;97658.00;;;;5107688;28;20478;-72
2021/10/28 07:06:03;;;;;;;11.07;6.43;;;2.30;99.90;1.70;97669.00;;;;5098608;28;20443;-73
2021/10/28 07:08:56;;;;;;;11.13;6.80;;;2.40;99.90;1.90;97663.00;;;;5104529;28;20429;-73
2021/10/28 07:11:50;;;;;;;11.77;7.77;;;2.50;99.90;2.10;97661.00;;;;5102151;28;20444;-73
2021/10/28 07:14:44;;;;;;;13.80;6.93;;;2.60;99.90;2.20;97670.00;;;;5104116;28;20428;-73
2021/10/28 07:17:37;;;;;;;8.70;7.80;;;2.80;99.90;2.30;97668.00;;;;5101667;28;20820;-72
2021/10/28 07:20:45;;;;;;;10.23;7.27;;;2.90;99.90;2.20;97666.00;;;;5099462;28;20455;-73
2021/10/28 07:26:55;;;;;;;8.13;7.30;;;3.00;99.90;2.80;97664.00;;;;5106104;28;20950;-72
2021/10/28 07:36:37;;;;;;;11.53;8.70;;;3.60;99.90;3.60;97670.00;;;;5105169;28;20943;-71
2021/10/28 07:39:45;;;;;;;14.13;9.83;;;3.80;99.90;3.80;97674.00;;;;5096329;28;20465;-71
2021/10/28 08:20:52;;;;;;;13.57;9.50;;;6.90;99.90;7.00;97672.00;;;;5106682;28;20222;-72
2021/10/28 08:23:46;;;;;;;15.83;8.93;;;7.00;99.90;7.10;97677.00;;;;5100260;28;20194;-72
2021/10/28 08:29:45;;;;;;;14.47;12.00;;;7.20;99.90;7.20;97665.00;;;;5096107;28;20202;-71
2021/10/28 08:32:36;;;;;;;19.90;14.63;;;7.30;99.90;7.40;97663.00;;;;5100659;28;20599;-71
2021/10/28 08:35:26;;;;;;;21.70;15.20;;;7.40;99.90;7.60;97655.00;;;;5107520;28;20666;-72
2021/10/28 08:38:15;;;;;;;14.20;10.80;;;7.60;99.90;7.80;97651.00;;;;5106609;27;20205;-71
2021/10/28 08:41:11;;;;;;;13.33;9.80;;;7.70;99.90;7.90;97648.00;;;;5110206;27;20241;-72
2021/10/28 08:44:02;;;;;;;11.87;9.70;;;8.30;99.90;8.10;97652.00;;;;5108380;28;20572;-72
2021/10/28 08:46:53;;;;;;;13.13;9.60;;;8.10;99.90;8.30;97651.00;;;;5107556;28;20199;-72
2021/10/28 08:49:48;;;;;;;12.80;9.40;;;8.20;99.90;8.50;97648.00;;;;5107879;28;20691;-72
2021/10/28 08:55:45;;;;;;;12.20;8.70;;;8.50;99.90;8.90;97639.00;;;;5083304;28;20205;-73
2021/10/28 08:58:45;;;;;;;14.47;9.63;;;8.70;99.90;8.90;97630.00;;;;5106147;28;20625;-73
2021/10/28 09:24:12;;;;;;;8.10;6.87;;;10.00;99.90;10.70;97632.00;;;;5104178;28;20225;-72
2021/10/28 09:27:08;;;;;;;9.73;8.07;;;10.30;99.90;11.00;97627.00;;;;5090811;28;20222;-73
2021/10/28 09:30:07;;;;;;;9.20;6.40;;;10.50;99.90;11.20;97642.00;;;;5103693;28;20200;-73
2021/10/28 09:33:06;;;;;;;8.30;6.87;;;10.70;99.90;11.30;97641.00;;;;5106257;28;20222;-72
2021/10/28 09:36:13;;;;;;;12.30;8.37;;;10.90;99.90;11.70;97649.00;;;;5106779;28;20666;-72
2021/10/28 09:45:56;;;;;;;8.23;7.33;;;11.60;99.90;12.40;97630.00;;;;5094926;28;20225;-72
2021/10/28 09:52:01;;;;;;;8.97;7.40;;;12.00;99.90;12.40;97648.00;;;;5103618;28;20211;-73
2021/10/28 09:55:03;;;;;;;9.40;6.93;;;12.30;99.90;12.50;97642.00;;;;5097143;28;20206;-73
2021/10/28 09:58:25;;;;;;;11.77;7.40;;;12.30;99.90;11.70;97634.00;;;;5104157;28;20200;-73
2021/10/28 10:01:35;;;;;;;12.70;8.07;;;12.40;99.90;11.70;97641.00;;;;5101559;28;20218;-74
2021/10/28 10:04:25;;;;;;;11.97;8.07;;;12.30;99.90;12.20;97637.00;;;;5094226;28;20212;-74
2021/10/28 10:07:18;;;;;;;10.57;8.53;;;12.30;99.90;12.20;97635.00;;;;5091155;28;20214;-74
2021/10/28 10:10:08;;;;;;;10.03;8.10;;;12.40;99.90;12.50;97633.00;;;;5097149;28;20202;-76
2021/10/28 10:13:00;;;;;;;13.87;9.30;;;12.50;99.90;12.60;97623.00;;;;5104159;27;20233;-73
2021/10/28 10:15:52;;;;;;;12.07;8.67;;;12.60;99.90;13.30;97630.00;;;;5118910;27;20199;-72
2021/10/28 10:18:41;;;;;;;10.23;8.87;;;12.80;99.90;14.30;97622.00;;;;5117541;27;20193;-74
2021/10/28 10:21:35;;;;;;;12.83;7.07;;;13.30;99.90;14.50;97629.00;;;;5128298;27;20238;-73
2021/10/28 10:24:44;;;;;;;10.90;7.00;;;14.00;99.90;15.00;97620.00;;;;5088581;28;20205;-74
2021/10/28 10:28:10;;;;;;;9.60;7.07;;;14.50;99.90;15.50;97634.00;;;;5106691;28;20198;-73
2021/10/28 11:03:26;;;;;;;6.43;5.80;;;17.40;91.20;15.90;97582.00;;;;5093264;28;20244;-74
2021/10/28 11:23:17;;;;;;;11.87;8.40;;;17.10;91.10;17.90;97579.00;;;;5097538;28;20202;-76
2021/10/28 11:26:39;;;;;;;16.70;11.50;;;17.40;91.20;18.10;97580.00;;;;5093468;28;20217;-76
2021/10/28 12:01:52;;;;;;;11.13;9.00;;;18.80;77.30;18.70;97532.00;;;;5070098;28;20617;-76
2021/10/28 12:17:31;;;;;;;8.53;7.63;;;18.60;74.20;18.90;97519.00;;;;5105047;28;20230;-78
2021/10/28 12:20:59;;;;;;;10.77;9.13;;;18.90;74.60;18.00;97516.00;;;;5090140;28;20203;-77
2021/10/28 12:24:07;;;;;;;10.43;9.07;;;19.50;70.90;19.10;97510.00;;;;5108559;28;20579;-77
2021/10/28 12:46:25;;;;;;;11.47;9.70;;;19.20;70.30;17.30;97470.00;;;;5047997;28;20208;-75
2021/10/28 12:49:45;;;;;;;10.17;8.80;;;19.20;68.80;17.70;97468.00;;;;5101450;28;20736;-76
2021/10/28 13:02:26;;;;;;;10.77;8.77;;;19.30;68.10;18.30;97461.00;;;;5107606;28;20230;-78
2021/10/28 13:05:39;;;;;;;11.17;9.23;;;19.20;69.40;20.10;97473.00;;;;5095773;28;20203;-77
2021/10/28 13:48:59;;;;;;;12.07;8.70;;;22.00;59.60;21.80;97477.00;;;;5096010;28;20212;-76
2021/10/28 13:52:01;;;;;;;11.40;8.60;;;22.10;59.00;21.50;97478.00;;;;5095965;27;20233;-77
2021/10/28 13:55:15;;;;;;;11.03;8.90;;;22.10;59.30;21.60;97465.00;;;;5110595;27;20208;-76
2021/10/28 13:58:18;;;;;;;13.87;9.17;;;21.70;59.60;20.70;97468.00;;;;5096006;28;20222;-76
2021/10/28 15:27:37;;;;;;;12.37;8.87;;;19.00;64.20;15.40;97513.00;;;;5136722;27;20854;-74
2021/10/28 15:28:34;;;;;;;12.80;8.80;;;11.70;95.30;10.50;97492.00;;;;5110145;28;20680;-74
2021/10/28 15:37:53;;;;;;;9.90;7.87;;;10.90;99.90;9.40;97493.00;;;;5103785;28;20202;-75
2021/10/28 15:40:55;;;;;;;14.43;10.10;;;10.50;99.90;9.30;97486.00;;;;5107861;27;20212;-74
2021/10/28 15:47:41;;;;;;;16.60;11.80;;;9.90;99.90;9.00;97487.00;;;;5115758;27;20206;-74
2021/10/28 15:54:01;;;;;;;11.77;10.00;;;9.50;99.90;8.90;97494.00;;;;5116983;27;20403;-73
2021/10/28 16:00:13;;;;;;;15.20;11.48;;;9.30;99.90;8.50;97490.00;;;;5123451;27;20379;-73
2021/10/28 16:21:53;;;;;;;18.07;12.93;;;8.70;99.90;8.00;97492.00;;;;5115529;27;20390;-70
2021/10/28 16:24:42;;;;;;;14.25;11.18;;;8.60;99.90;7.70;97484.00;;;;5112125;27;20409;-73
2021/10/28 16:27:31;;;;;;;13.52;10.75;;;8.50;99.90;7.80;97492.00;;;;5119408;27;20377;-73
2021/10/28 16:30:20;;;;;;;15.07;10.60;;;8.40;99.90;7.80;97502.00;;;;5114219;27;20391;-73
2021/10/28 16:33:10;;;;;;;12.90;11.63;;;8.40;99.90;7.90;97497.00;;;;5125826;27;20383;-74
2021/10/28 16:35:59;;;;;;;11.77;10.52;;;8.30;99.90;7.90;97498.00;;;;5119679;27;20406;-71
2021/10/28 16:38:48;;;;;;;12.93;10.85;;;8.30;99.90;7.90;97501.00;;;;5115801;27;20383;-74
2021/10/28 16:41:38;;;;;;;14.53;12.10;;;8.20;99.90;7.80;97500.00;;;;5121084;27;20382;-72
2021/10/28 16:44:27;;;;;;;15.68;12.88;;;8.20;99.90;7.40;97502.00;;;;5121433;27;20383;-72
2021/10/28 16:47:16;;;;;;;15.30;12.40;;;8.10;99.90;7.60;97500.00;;;;5111330;27;20373;-74
2021/10/28 16:50:11;;;;;;;24.23;19.42;;;8.10;99.90;7.30;97501.00;;;;5105208;27;20391;-73
2021/10/28 16:53:00;;;;;;;14.25;11.93;;;8.00;99.90;7.20;97501.00;;;;5117110;27;20397;-72
2021/10/28 16:55:53;;;;;;;16.23;11.68;;;7.80;99.90;7.00;97492.00;;;;5109537;27;20391;-73
2021/10/28 16:58:42;;;;;;;15.50;13.13;;;7.70;99.90;6.80;97495.00;;;;5117547;27;20439;-72
2021/10/28 17:01:31;;;;;;;14.73;11.80;;;7.60;99.90;6.70;97499.00;;;;5116546;27;20384;-73
2021/10/28 17:04:20;;;;;;;13.48;11.27;;;7.40;99.90;6.70;97499.00;;;;5116288;27;20758;-72
2021/10/28 17:07:11;;;;;;;12.18;10.30;;;7.30;99.90;6.30;97499.00;;;;5106679;27;20404;-72
2021/10/28 17:10:00;;;;;;;12.50;11.20;;;7.10;99.90;6.60;97497.00;;;;5119744;27;20394;-73
2021/10/28 17:12:49;;;;;;;14.80;13.23;;;7.00;99.90;6.70;97500.00;;;;5111111;27;20373;-73
2021/10/28 17:15:38;;;;;;;18.70;15.57;;;7.10;99.90;6.30;97495.00;;;;5109075;27;20416;-72
2021/10/28 17:18:27;;;;;;;17.77;13.88;;;7.00;99.90;6.30;97491.00;;;;5121625;27;20386;-72
2021/10/28 17:21:16;;;;;;;14.30;12.80;;;7.00;99.90;6.50;97492.00;;;;5112827;27;20758;-73
2021/10/28 17:24:09;;;;;;;16.92;12.52;;;6.90;99.90;6.50;97497.00;;;;5105842;27;20391;-72
2021/10/28 17:26:58;;;;;;;17.98;14.95;;;6.90;99.90;6.30;97498.00;;;;5120668;27;20387;-76
2021/10/28 17:29:47;;;;;;;17.42;11.80;;;6.90;99.90;6.20;97515.00;;;;5114631;27;20384;-74
2021/10/28 17:32:40;;;;;;;11.77;10.57;;;6.80;99.90;6.50;97516.00;;;;5119936;27;20378;-74
2021/10/28 17:35:29;;;;;;;14.30;11.60;;;6.80;99.90;6.30;97511.00;;;;5117545;27;20782;-74
2021/10/28 17:38:20;;;;;;;13.93;11.43;;;6.80;99.90;6.20;97510.00;;;;5105716;27;20397;-73
2021/10/28 17:41:10;;;;;;;14.35;12.48;;;6.80;99.90;6.00;97505.00;;;;5109654;27;20379;-74
2021/10/28 17:44:08;;;;;;;13.43;11.60;;;6.70;99.90;5.80;97500.00;;;;5120641;27;20474;-73
2021/10/28 17:46:56;;;;;;;13.43;12.02;;;6.60;99.90;5.40;97501.00;;;;5110975;27;20384;-73
2021/10/28 17:49:46;;;;;;;16.15;12.60;;;6.40;99.90;5.20;97503.00;;;;5111096;27;20393;-72
2021/10/28 17:52:44;;;;;;;13.27;11.98;;;6.20;99.90;5.40;97503.00;;;;5114207;27;20392;-72
2021/10/28 17:55:33;;;;;;;16.98;13.60;;;6.10;99.90;5.40;97511.00;;;;5110878;27;20408;-72
2021/10/28 17:58:24;;;;;;;16.48;13.52;;;6.10;99.90;5.60;97514.00;;;;5116946;27;20385;-71
2021/10/28 18:01:15;;;;;;;14.98;12.05;;;6.10;99.90;5.70;97502.00;;;;5114426;27;20388;-75
2021/10/28 18:04:04;;;;;;;15.18;12.52;;;6.10;99.90;5.60;97513.00;;;;5109113;27;20909;-74
2021/10/28 18:06:53;;;;;;;14.98;11.40;;;6.10;99.90;5.70;97503.00;;;;5106072;27;20395;-74
2021/10/28 18:09:44;;;;;;;18.08;11.95;;;6.10;99.90;5.70;97505.00;;;;5109629;27;21178;-73
2021/10/28 18:12:34;;;;;;;;;;;6.10;99.90;5.50;97513.00;;;;5114139;27;20039;-73
2021/10/28 18:15:26;;;;;;;;;;;6.10;99.90;5.40;97499.00;;;;5107557;27;19924;-73
2021/10/28 18:18:15;;;;;;;;;;;6.00;99.90;5.30;97498.00;;;;5110921;27;20396;-74
2021/10/28 18:21:11;;;;;;;13.80;10.73;;;6.00;99.90;5.00;97505.00;;;;5110946;27;20209;-73
2021/10/28 18:24:00;;;;;;;13.53;10.93;;;5.80;99.90;4.80;97494.00;;;;5106254;28;20580;-74
2021/10/28 18:26:49;;;;;;;17.13;11.00;;;5.70;99.90;4.70;97495.00;;;;5122793;28;20695;-73
2021/10/28 18:29:38;;;;;;;15.23;11.07;;;5.60;99.90;4.90;97498.00;;;;5113928;28;20194;-74
2021/10/28 18:32:29;;;;;;;14.97;10.40;;;5.50;99.90;4.90;97495.00;;;;5116999;27;20224;-73
2021/10/28 18:35:18;;;;;;;14.77;12.10;;;5.50;99.90;4.60;97490.00;;;;5118096;28;20218;-72
2021/10/28 18:38:09;;;;;;;17.07;11.77;;;5.40;99.90;4.70;97499.00;;;;5113901;27;20206;-74
2021/10/28 18:40:58;;;;;;;14.17;11.43;;;5.30;99.90;4.30;97491.00;;;;5111690;28;20704;-74
2021/10/28 18:43:48;;;;;;;18.83;12.67;;;5.30;99.90;4.40;97487.00;;;;5116194;28;20229;-72
2021/10/28 18:46:37;;;;;;;16.80;12.30;;;5.20;99.90;4.40;97489.00;;;;5108009;28;20579;-73
2021/10/28 18:49:28;;;;;;;17.03;13.33;;;5.10;99.90;4.60;97484.00;;;;5107643;28;20429;-73
2021/10/28 18:52:17;;;;;;;16.67;12.33;;;5.10;99.90;4.50;97483.00;;;;5117441;28;20432;-73
2021/10/28 18:55:07;;;;;;;15.53;12.23;;;5.10;99.90;4.30;97487.00;;;;5111909;28;20425;-72
2021/10/28 18:57:56;;;;;;;16.80;13.07;;;5.00;99.90;4.20;97489.00;;;;5115152;28;20420;-73
2021/10/28 19:00:46;;;;;;;16.90;13.37;;;5.00;99.90;4.10;97489.00;;;;5113287;28;20205;-73
2021/10/28 19:03:36;;;;;;;18.13;13.07;;;4.90;99.90;4.00;97488.00;;;;5113789;28;20435;-73
2021/10/28 19:06:26;;;;;;;16.83;13.73;;;4.90;99.90;4.10;97482.00;;;;5121550;28;20432;-70
2021/10/28 19:09:17;;;;;;;18.60;12.27;;;4.80;99.90;4.00;97482.00;;;;5107339;28;20435;-71
2021/10/28 19:12:06;;;;;;;17.90;12.60;;;4.70;99.90;4.10;97477.00;;;;5121419;27;20462;-72
2021/10/28 19:14:55;;;;;;;20.80;14.53;;;4.70;99.90;4.10;97485.00;;;;5116889;27;20435;-71
2021/10/28 19:17:47;;;;;;;15.70;12.30;;;4.70;99.90;4.00;97479.00;;;;5124738;27;20939;-74
2021/10/28 19:20:37;;;;;;;15.47;12.20;;;4.60;99.90;3.90;97486.00;;;;5121542;27;20202;-71
2021/10/28 19:23:27;;;;;;;19.97;13.10;;;4.60;99.90;3.90;97483.00;;;;5113756;27;20424;-72
2021/10/28 19:26:16;;;;;;;23.63;13.60;;;4.50;99.90;4.00;97487.00;;;;5115775;27;20190;-72
2021/10/28 19:29:07;;;;;;;16.77;13.30;;;4.50;99.90;3.90;97482.00;;;;5112766;27;20439;-72
2021/10/28 19:31:58;;;;;;;18.77;12.63;;;4.50;99.90;3.90;97475.00;;;;5116335;27;20767;-72
2021/10/28 19:34:48;;;;;;;17.07;12.90;;;4.50;99.90;3.70;97485.00;;;;5118319;27;20420;-71
2021/10/28 19:37:43;;;;;;;16.10;13.50;;;4.50;99.90;3.70;97479.00;;;;5126784;27;20299;-72
2021/10/28 19:46:45;;;;;;;19.27;13.70;;;4.40;99.90;3.70;97479.00;;;;5106638;27;20431;-71
2021/10/28 19:49:34;;;;;;;24.07;15.73;;;4.40;99.90;3.60;97478.00;;;;5115947;27;20431;-73
2021/10/28 19:52:24;;;;;;;23.50;16.67;;;4.30;99.90;3.60;97488.00;;;;5116791;27;20459;-73
2021/10/28 19:55:17;;;;;;;23.30;15.03;;;4.30;99.90;3.60;97481.00;;;;5119073;27;20962;-73
2021/10/28 19:58:11;;;;;;;23.53;16.27;;;4.20;99.90;3.60;97474.00;;;;5119720;27;20412;-71
2021/10/28 20:01:04;;;;;;;23.70;16.70;;;4.20;99.90;3.70;97473.00;;;;5105562;28;20829;-72
2021/10/28 20:04:13;;;;;;;19.53;15.37;;;4.20;99.90;3.70;97481.00;;;;5115328;27;20431;-71
2021/10/28 20:07:21;;;;;;;20.50;15.87;;;4.20;99.90;3.50;97478.00;;;;5119376;27;20510;-71
2021/10/28 20:22:33;;;;;;;22.67;17.07;;;4.10;99.90;3.00;97483.00;;;;5107691;28;20454;-71
2021/10/28 20:25:27;;;;;;;22.37;16.40;;;3.90;99.90;2.90;97488.00;;;;5121949;27;20792;-71
2021/10/28 20:28:18;;;;;;;23.80;17.17;;;3.80;99.90;3.00;97480.00;;;;5115497;27;20946;-70